The Florida Keys Marathon Airport
KMTH : rendu visible

Aérodrome :











RETROUVEZ-NOUS SUR...

 
LOGIN :

S'inscrire | Disclaimer

   EN    FR    IT 

 









Légende :    VFR   VFR Marginal   IFR   IFR Intensif   IFR Très Intensif
Visi : 
Plafond : 
>= 8 km
>= 3000ft
5 à 8 km
1000 à 3000 ft
1500m à 5 km
500 à 1000 ft
800 à 1500m
200 à 500 ft
< 800m
< 200 ft
Symboles :   Orages  Brouillard  Fortes neiges  Fortes précipitations  Vent > 20 kt






- Altitude de l'aérodrome : 5 ft


KMTH - The Florida Keys Marathon

DERNIER METAR :
  • 031653Z AUTO 21006KT 10SM CLR A2996 RMK AO2 SLP146 $

METARs EXPIRÉS :
  • 031553Z AUTO VRB05KT 10SM CLR A2996 RMK AO2 SLP146 $

TAF KMTH
Valide du 03 à 18h jusqu'au 04 à 18h UTC


031727Z 0318/0418 22005KT P6SM FEW025
FM031900 24005KT P6SM VCSH SCT025 SCT045
FM040000 29004KT P6SM FEW025
FM040700 21005KT P6SM VCSH SCT020 SCT035
FIR KZMA / Amérique du Nord



MET'MAP, la Météo Aéronautique d'un coup d'oeil ! - Copyright ORBIFLY Décembre 2007 - Disclaimer

ORBIFLY MET'MAP TEAM :

Programmation & Développement : Alexandra Zaïnal
Sur une idée originale de : Baudouin d'Aumeries
Assistance à la programmation : Marc-Olivier Méhu
Soutien technique & logistique : Manuel Goepfert

Contact : metmap@orbifly.com




SOURCES & CREDITS :

   NOAA       Earth
Advisory